Woodland Hills, CA (91367)

08:27 AM PDT on septembrie 27, 2016 (GMT -0700)
Fallbrook Mall Area | | Change Station

Elev 832 ft 34.18 °N, 118.62 °W | Updated 40 seconds ago

Clear
Cer senin
67.1 °F
Feels Like 67.1 °F
N
0.0
Vânt variabil Vânt from NE
Gusts 0.0 mph

astăzi
High -- | Low -- °F
--% Chance of Precip.
Ieri
High -- | Low -- °F
Precip. -- inch
Presiunea 29.86 inch
Vizibilitatea 10.0 mile
Nori Cer senin
Punctul de rouă 44 °F
Umiditatea 43%
Precipitaţii 0.00 inch
Adâncimea zăpezii Not available.
6:46 AM 6:43 PM
Semilună în descreştere, 11% visible
METAR KVNY 271451Z AUTO VRB03KT 10SM CLR 23/05 A2989 RMK AO2 SLP111 T02280050 50002
Presiunea 29.86 inch
Vizibilitatea 10.0 mile
Nori Cer senin
Punctul de rouă 44 °F
Umiditatea 43%
Precipitaţii 0.00 inch
Adâncimea zăpezii Not available.
6:46 AM 6:43 PM
Semilună în descreştere, 11% visible
METAR KVNY 271451Z AUTO VRB03KT 10SM CLR 23/05 A2989 RMK AO2 SLP111 T02280050 50002

10-Day Weather Forecast

Almanac

Astronomie

Sep. 27, 2016 Răsărit Apus
Timpul Actual
Crepusculul Civil
Crepusculul nautic
Răsărit Astronomic
Luna
Durata zilei lumină
Lungimea zilei
Tomorrow will be .
, % of the Moon is Illuminated

Extremele de azi

State Highs State Lows

Community

WunderPhotos

Upload Photos

1,942,106 photos uploaded!

WunderBlog® & News

Nearby

Calitatea aerului

  Calitatea aerului Index de calitate a aerului Poluat
Not available.

Adâncimea zapezii

Station Depth Elevation

Earthquake Activity

Oraş Distance Mag. Time & Date
Minimum magnitude displayed is 2.5.

Coastal Water Temperatures

Locul Temperatura

Stations

Nearby Weather Stations

Locaţia staţiei Temp Vânt rece Punctul de rouă Umiditatea Vânt Precip. Elev Actualizare Type
                   

Watches & Warnings

There are currently no watches in effect.